Seleccione un Aeropuerto
Regional La Paz
EstaciónAerodromoSit. GeograficaDescripción
SLLPInternaciónal El Alto16-08S-68-10W SLLP 011100Z 10004KT 6000 FEW005 SCT012 08/05 Q1035 A3056 626.0 HR84 P4352 VIS/RED/ST E/SE/S HZ SW/W AC/CI NOSIG=
SLRYReyes14-18S-67-21W SLRY 011200Z 00000KT 9999 BKN006 OVC080 24/23 Q1006 A2973 HR98 RWY WET OPR C206=
SLRQRurrenabaque14-25S-67-29W SLRQ 301900Z 11007KT 8000 VCSH FEW010 BKN015 OVC070 23/23 Q1007 A2975 HR98 SH/SW/W/NW RERA=
SLAPApolo14-44S-68-24W SLAP 302000Z 36015KT 9999 SCT025 BKN200 24/17 Q1012 A2989 853.6 HR65 AC=
SLSBSan Borja14-51S-66-44W SLSB 302000Z 11004KT 5000 -RA BKN005 OVC070 23/22 Q1008 A2978 HR95 RWY WET INOP=
SLCNCharaña17-35S-69-25W
SLOROruro17-57S-67-04W SLOR 011100Z 18005KT 9999 NSC 08/02 Q1032 A3048 654.0 HR63 FU CI=
SLUYUyuni20-27S-62-52W SLUY 011100Z 01004KT 9999 NSC 05/M02 Q1030 A3049 656.4 HR55 CI=
SLCCCopacabana - Tito Yupanqui16-11S-69-05W SLCC SLOR SLUY
Regional Cochabamba
EstaciónAerodromoSit. GeograficaDescripción
SLVMVillamontes21-15S-63-24W SLVM 011100Z 00000KT 9999 SCT070 21/17 Q1009 A2981 HR81 CI=
SLHIChimore16-58S-65-09W SLHI 011100Z 00000KT 9999 BKN010 OVC070 21/21 Q1009 A2980 HR99=
SLCBCochabamba17-25S-66-10W SLCB 011100Z 00000KT 7000 FEW030 17/14 Q1021 A3016 748.6 HR79 VIS RED FU SE/S/SW CI NOSIG=
SLALAlcantari19-14S-65-09W SLAL 011100Z 01004KT 9999 BKN013 11/09 Q1026 A3031 701.4 HR85 AC=
SLPOPotosí19-32S-65-43W SLPO 011100Z 00000KT 9999 FEW010 BKN200 07/05 Q1033 A3052 635.2 HR85 AC=
SLAGMonteagudo19-49S-63-58W SLAG 301900Z NIL=
SLTJTarija21-33S-64-42W SLTJ 011100Z 00000KT 9999 BKN030 19/12 Q1018 A3007 813.5 HR65 CI=
SLYAYacuiba21-57S-63-39W SLYA 301900Z 06008KT 9999 SCT070 33/19 Q1009 A2980 934.0 HR44=
SLBJBermejo22-46S-64-18W SLBJ 301900Z NIL=
Regional Santa Cruz
EstaciónAerodromoSit. GeograficaDescripción
SLVGValle Grande18-28S-64-05W SLVG 011100Z 00000KT 9999 SCT030 BKN200 15/12 Q1022 A3018 HR85 RWY NML=
SLASAscención de Guarayos15-55S-63-09W SLAS 011100Z 00000KT 9999 SCT012 BKN070 24/23 Q1012 A2989 HR96 RWY WET OPR=
SLCPConcepción16-08S-62-01W SLCP 011100Z 00000KT 5000 VCSH OVC006 21/21 Q1013 A2991 HR100 RERA SH NW/N/NE RWY WET OPR=
SLJVSan Javier16-16S-62-28W SLJV 011100Z NIL=
SLTISan Matías16-20S-58-24W SLTI 011100Z 00000KT 9999 NSC 25/23 Q1015 A2997 HR90 CI RWY NML =
SLSISan Ignacio de Velasco16-23S-60-57W SLSI 162100Z 18006KT 9999 SCT070 24/18 Q1012 A2988 HR69=
SLVRInternaciónal Viru Viru17-38S-63-08W SLVR 011100Z 34009KT 9999 BKN003 21/20 Q1010 A2983 HR94 NOSIG=
SLETEl Trompillo17-48S-63-10W SLET 011200Z 30013KT 9999 BKN010 23/20 Q1010 A2983 HR86 AC NOSIG=
SLJESan José de Chiquitos17-49S-60-44W SLJE 011100Z WO ATTN=
SLRBRoboré18-19S-59-45W SLRB 011100Z 00000KT 9999 NSC 24/21 Q1012 A2988 HR84 CI RWY NML =
SLPSPuerto Suárez18-58S-57-49W SLPS 011100Z NIL=
SLCACamiri20-00S-63-31W SLCA 011100Z 00000KT 9999 BKN080 18/14 Q1013 A2991 HR82 RWY NML =
Regional Beni
EstaciónAerodromoSit. GeograficaDescripción
SLTRTrinidad14-49S-64-54W SLTR 011100Z 34004KT 1000 BR BKN003 BKN070 23/23 Q1009 A2982 991.4 HR100 BECMG 5000=
SLCOCobija11-02S-68-47W SLCO 011100Z 00000KT 9999 SCT080 BKN200 23/23 Q1010 A2984 983.0 HR97=
SLGMGuayaramerín10-53S-65-23W SLGM 011100Z 00000KT 9999 SCT003 SCT080 BKN200 25/24 Q1010 A2983 HR96=
SLRIRiberalta11-00S-66-04W SLRI 011200Z 36008KT 9999 FEW005 BKN200 26/24 Q1012 A2989 HR87=
SLJOSan Joaquin13-03S-64-39W SLJO 011100Z NIL=
SLRASan Ramón13-15S-64-36W SLRA 011100Z WO ATTN=
SLMGSan Magdalena13-15S-64-36W SLMG 011100Z 00000KT 9999 BKN080 24/23 Q1008 A2977 HR98 RWY OPR C210=
SLBUBaures13-39S-63-42W SLBU 011100Z NIL=
SLSASanta Ana de Yacuma13-45S-65-26W SLSA 011100Z 34004KT 9999 FEW006 BKN200 24/23 Q1009 A2982 HR97=
SLSRSanta Rosa14-04S-66-47W SLSR 011100Z 00000KT 9999 SCT012 BKN080 24/22 Q1012 A2989 HR93 RWY WET INOP=
SLSMSan Ignacio de Moxos14-57S-65-38W SLSM 011100Z NIL=